createdAt,value
2019-02-14T00:01:20.264Z,32.47
2019-02-14T00:03:50.775Z,39.47
2019-02-14T00:06:21.132Z,38.20
2019-02-14T00:08:49.544Z,43.23
2019-02-14T00:11:21.599Z,37.57
2019-02-14T00:13:50.066Z,31.73
2019-02-14T00:16:22.254Z,33.60
2019-02-14T00:18:50.752Z,40.90
2019-02-14T00:21:19.756Z,36.17
2019-02-14T00:23:48.572Z,36.20
2019-02-14T00:26:25.600Z,35.10
2019-02-14T00:28:56.514Z,38.80
2019-02-14T00:31:32.118Z,31.03
2019-02-14T00:34:01.805Z,38.83
2019-02-14T00:36:32.004Z,33.10
2019-02-14T00:39:02.058Z,35.77
2019-02-14T00:41:32.002Z,39.50
2019-02-14T00:44:01.446Z,43.23
2019-02-14T00:46:31.002Z,34.10
2019-02-14T00:49:00.516Z,40.17
2019-02-14T00:51:30.117Z,32.23
2019-02-14T00:53:58.484Z,39.10
2019-02-14T00:56:27.164Z,32.90
2019-02-14T00:58:56.151Z,40.20
2019-02-14T01:01:31.486Z,37.50
2019-02-14T01:03:59.822Z,37.10
2019-02-14T01:06:37.323Z,39.33
2019-02-14T01:09:09.001Z,45.63
2019-02-14T01:11:37.333Z,40.73
2019-02-14T01:14:05.783Z,37.47
2019-02-14T01:16:34.256Z,33.27
2019-02-14T01:19:04.178Z,37.33
2019-02-14T01:21:32.970Z,38.80
2019-02-14T01:24:01.339Z,39.30
2019-02-14T01:26:31.154Z,40.57
2019-02-14T01:28:59.948Z,37.37
2019-02-14T01:31:28.323Z,36.47
2019-02-14T01:37:29.975Z,34.13
2019-02-14T01:40:00.894Z,39.90
2019-02-14T01:42:31.686Z,42.63
2019-02-14T01:45:02.365Z,40.40
2019-02-14T01:47:31.342Z,33.07
2019-02-14T01:49:59.736Z,37.50
2019-02-14T01:52:28.170Z,35.87
2019-02-14T01:54:57.797Z,35.37
2019-02-14T01:57:27.471Z,36.63
2019-02-14T01:59:55.863Z,33.73
2019-02-14T02:02:36.065Z,27.87
2019-02-14T02:05:08.185Z,37.07
2019-02-14T02:07:38.216Z,34.63
2019-02-14T02:10:11.269Z,32.97
2019-02-14T02:12:44.701Z,36.17
2019-02-14T02:15:25.773Z,31.87
2019-02-14T02:17:56.320Z,27.63
2019-02-14T02:20:33.249Z,35.60
2019-02-14T02:22:59.265Z,33.47
2019-02-14T02:25:33.619Z,41.20
2019-02-14T02:28:06.771Z,32.07
2019-02-14T02:30:35.568Z,34.03
2019-02-14T02:33:04.635Z,33.93
2019-02-14T02:35:33.032Z,38.23
2019-02-14T02:38:03.975Z,32.40
2019-02-14T02:40:38.864Z,43.93
2019-02-14T02:43:07.261Z,44.47
2019-02-14T02:45:38.810Z,33.40
2019-02-14T02:48:07.237Z,34.33
2019-02-14T02:50:38.165Z,35.10
2019-02-14T02:53:07.590Z,31.87
2019-02-14T02:55:37.561Z,36.07
2019-02-14T02:58:05.943Z,40.37
2019-02-14T03:00:34.322Z,37.87
2019-02-14T03:03:04.269Z,35.23
2019-02-14T03:05:32.632Z,33.00
2019-02-14T03:08:03.956Z,37.93
2019-02-14T03:10:35.991Z,38.73
2019-02-14T03:13:05.992Z,40.53
2019-02-14T03:15:35.978Z,34.77
2019-02-14T03:18:05.640Z,35.17
2019-02-14T03:20:34.013Z,35.53
2019-02-14T03:23:03.739Z,40.20
2019-02-14T03:25:32.131Z,32.37
2019-02-14T03:28:00.839Z,33.83
2019-02-14T03:30:29.532Z,39.90
2019-02-14T03:32:59.637Z,33.10
2019-02-14T03:35:29.690Z,36.60
2019-02-14T03:37:59.299Z,30.23
2019-02-14T03:40:27.673Z,38.80
2019-02-14T03:42:57.252Z,36.00
2019-02-14T03:45:25.746Z,39.77
2019-02-14T03:48:14.836Z,30.60
2019-02-14T03:50:44.549Z,31.43
2019-02-14T03:53:15.147Z,42.23
2019-02-14T03:55:44.138Z,34.27
2019-02-14T03:58:16.066Z,35.27
2019-02-14T04:00:44.428Z,35.67
2019-02-14T04:03:13.855Z,28.23
2019-02-14T04:05:42.317Z,30.33
2019-02-14T04:08:10.717Z,41.63
2019-02-14T04:10:43.075Z,37.37
2019-02-14T04:13:13.875Z,27.57
2019-02-14T04:15:44.082Z,35.20
2019-02-14T04:18:14.758Z,27.43
2019-02-14T04:20:43.475Z,30.83
2019-02-14T04:23:15.763Z,32.37
2019-02-14T04:25:44.171Z,32.80
2019-02-14T04:28:13.523Z,34.93
2019-02-14T04:30:43.645Z,33.83
2019-02-14T04:33:12.007Z,31.53
2019-02-14T04:35:40.441Z,32.50
2019-02-14T04:38:11.279Z,32.70
2019-02-14T04:40:42.351Z,30.20
2019-02-14T04:43:14.357Z,33.67
2019-02-14T04:45:45.191Z,28.43
2019-02-14T04:48:17.427Z,28.73
2019-02-14T04:50:45.866Z,31.80
2019-02-14T04:53:15.898Z,34.63
2019-02-14T04:55:44.269Z,34.77
2019-02-14T04:58:31.487Z,33.53
2019-02-14T05:01:01.178Z,31.30
2019-02-14T05:03:33.005Z,29.87
2019-02-14T05:06:05.516Z,33.83
2019-02-14T05:08:37.308Z,32.00
2019-02-14T05:11:10.352Z,33.10
2019-02-14T05:13:38.716Z,30.50
2019-02-14T05:16:10.445Z,29.93
2019-02-14T05:18:40.536Z,33.03
2019-02-14T05:21:14.025Z,35.87
2019-02-14T05:23:45.893Z,37.83
2019-02-14T05:26:16.954Z,34.23
2019-02-14T05:28:45.677Z,29.10
2019-02-14T05:31:14.194Z,27.97
2019-02-14T05:33:42.610Z,32.47
2019-02-14T05:36:12.622Z,24.60
2019-02-14T05:38:43.189Z,29.13
2019-02-14T05:41:11.556Z,33.20
2019-02-14T05:43:43.016Z,30.97
2019-02-14T05:46:14.284Z,34.40
2019-02-14T05:48:44.183Z,30.63
2019-02-14T05:51:12.567Z,34.43
2019-02-14T05:53:44.678Z,26.30
2019-02-14T05:56:12.756Z,27.53
2019-02-14T05:58:42.258Z,32.73
2019-02-14T06:01:23.778Z,31.97
2019-02-14T06:03:56.909Z,33.57
2019-02-14T06:06:31.228Z,36.53
2019-02-14T06:08:59.612Z,27.57
2019-02-14T06:11:27.995Z,31.87
2019-02-14T06:13:58.312Z,28.30
2019-02-14T06:16:26.706Z,32.00
2019-02-14T06:18:58.340Z,32.60
2019-02-14T06:21:26.804Z,32.47
2019-02-14T06:23:55.611Z,32.97
2019-02-14T06:26:25.368Z,29.70
2019-02-14T06:28:54.986Z,33.50
2019-02-14T06:31:23.279Z,27.37
2019-02-14T06:33:51.645Z,33.27
2019-02-14T06:36:20.984Z,26.60
2019-02-14T06:38:49.352Z,28.53
2019-02-14T06:41:19.191Z,31.13
2019-02-14T06:43:50.255Z,32.03
2019-02-14T06:46:19.118Z,30.77
2019-02-14T06:48:59.272Z,29.60
2019-02-14T06:51:23.307Z,34.43
2019-02-14T06:53:51.725Z,27.67
2019-02-14T06:56:20.121Z,36.13
2019-02-14T06:58:48.537Z,32.10
2019-02-14T07:01:16.924Z,26.63
2019-02-14T07:03:45.904Z,31.17
2019-02-14T07:06:14.262Z,29.73
2019-02-14T07:08:46.486Z,37.33
2019-02-14T07:11:14.832Z,31.20
2019-02-14T07:13:43.354Z,34.60
2019-02-14T07:16:11.752Z,33.27
2019-02-14T07:18:40.174Z,33.93
2019-02-14T07:21:08.544Z,33.30
2019-02-14T07:23:41.384Z,28.37
2019-02-14T07:26:09.780Z,32.20
2019-02-14T07:28:43.983Z,36.17
2019-02-14T07:31:12.439Z,25.30
2019-02-14T07:33:42.783Z,28.73
2019-02-14T07:36:11.156Z,34.33
2019-02-14T07:38:41.215Z,26.93
2019-02-14T07:41:09.585Z,30.90
2019-02-14T07:43:39.406Z,32.00
2019-02-14T07:46:07.818Z,31.80
2019-02-14T07:48:36.133Z,33.17
2019-02-14T07:51:04.541Z,28.70
2019-02-14T07:53:33.708Z,29.17
2019-02-14T07:56:02.079Z,29.03
2019-02-14T07:58:30.491Z,27.87
2019-02-14T08:00:58.882Z,29.87
2019-02-14T08:03:27.264Z,33.30
2019-02-14T08:05:55.745Z,34.17
2019-02-14T08:08:25.242Z,35.10
2019-02-14T08:10:53.630Z,28.93
2019-02-14T08:13:22.485Z,27.63
2019-02-14T08:15:50.926Z,25.10
2019-02-14T08:18:19.346Z,34.20
2019-02-14T08:20:47.741Z,28.53
2019-02-14T08:23:16.126Z,31.03
2019-02-14T08:25:44.499Z,30.17
2019-02-14T08:28:12.871Z,35.83
2019-02-14T08:30:41.288Z,29.80
2019-02-14T08:33:09.663Z,35.83
2019-02-14T08:35:38.033Z,34.80
2019-02-14T08:38:08.041Z,29.70
2019-02-14T08:40:36.402Z,26.70
2019-02-14T08:43:04.815Z,35.93
2019-02-14T08:45:33.182Z,27.00
2019-02-14T08:48:01.565Z,37.87
2019-02-14T08:50:32.346Z,31.90
2019-02-14T08:53:00.720Z,29.80
2019-02-14T08:55:29.078Z,34.23
2019-02-14T08:57:57.473Z,37.07
2019-02-14T09:00:25.971Z,37.63
2019-02-14T09:02:54.331Z,36.83
2019-02-14T09:05:22.682Z,33.03
2019-02-14T09:07:54.548Z,38.13
2019-02-14T09:10:20.989Z,42.97
2019-02-14T09:12:49.879Z,35.17
2019-02-14T09:15:18.250Z,42.40
2019-02-14T09:17:46.630Z,35.73
2019-02-14T09:20:17.556Z,33.93
2019-02-14T09:22:45.964Z,36.80
2019-02-14T09:25:14.330Z,32.73
2019-02-14T09:27:42.980Z,37.80
2019-02-14T09:30:12.983Z,37.30
2019-02-14T09:32:41.524Z,30.93
2019-02-14T09:35:10.983Z,29.73
2019-02-14T09:37:39.393Z,40.27
2019-02-14T09:40:13.325Z,34.20
2019-02-14T09:42:41.708Z,35.40
2019-02-14T09:45:14.156Z,34.00
2019-02-14T09:47:42.514Z,36.23
2019-02-14T09:50:12.356Z,32.43
2019-02-14T09:52:41.367Z,32.00
2019-02-14T09:55:11.371Z,31.93
2019-02-14T09:57:39.759Z,31.20
2019-02-14T10:00:11.415Z,34.00
2019-02-14T10:02:40.043Z,32.43
2019-02-14T10:05:09.251Z,33.07
2019-02-14T10:07:37.664Z,38.83
2019-02-14T10:10:09.555Z,27.97
2019-02-14T10:12:37.903Z,31.43
2019-02-14T10:15:08.679Z,31.83
2019-02-14T10:17:37.123Z,29.83
2019-02-14T10:20:13.895Z,31.13
2019-02-14T10:22:42.293Z,27.60
2019-02-14T10:25:11.343Z,32.00
2019-02-14T10:27:39.872Z,32.93
2019-02-14T10:30:20.370Z,30.53
2019-02-14T10:32:48.763Z,27.77
2019-02-14T10:35:17.859Z,28.53
2019-02-14T10:37:46.247Z,30.93
2019-02-14T10:40:15.920Z,30.23
2019-02-14T10:42:44.344Z,30.77
2019-02-14T10:45:15.417Z,27.83
2019-02-14T10:47:43.834Z,29.63
2019-02-14T10:50:12.336Z,27.27
2019-02-14T10:52:42.681Z,26.77
2019-02-14T10:55:14.201Z,28.67
2019-02-14T10:57:42.553Z,27.13
2019-02-14T11:00:25.300Z,30.53
2019-02-14T11:02:53.716Z,29.77
2019-02-14T11:05:24.501Z,29.97
2019-02-14T11:07:54.413Z,30.43
2019-02-14T11:10:24.442Z,27.30
2019-02-14T11:12:56.012Z,32.10
2019-02-14T11:15:25.187Z,29.23
2019-02-14T11:17:53.615Z,27.70
2019-02-14T11:20:23.031Z,33.90
2019-02-14T11:22:52.059Z,26.40
2019-02-14T11:25:23.673Z,27.30
2019-02-14T11:28:00.394Z,23.53
2019-02-14T11:30:28.871Z,24.93
2019-02-14T11:33:03.965Z,23.70
2019-02-14T11:35:32.441Z,24.80
2019-02-14T11:38:01.781Z,24.67
2019-02-14T11:40:30.175Z,25.67
2019-02-14T11:42:59.935Z,21.73
2019-02-14T11:45:29.946Z,25.03
2019-02-14T11:47:58.338Z,24.17
2019-02-14T11:50:27.216Z,26.77
2019-02-14T11:52:55.642Z,21.20
2019-02-14T11:55:24.118Z,31.00
2019-02-14T11:57:52.681Z,24.97
2019-02-14T12:00:28.601Z,22.37
2019-02-14T12:02:57.286Z,26.47
2019-02-14T12:05:25.713Z,27.87
2019-02-14T12:07:54.109Z,24.87
2019-02-14T12:10:22.484Z,28.50
2019-02-14T12:12:52.757Z,26.03
2019-02-14T12:15:23.894Z,24.97
2019-02-14T12:17:51.958Z,30.90
2019-02-14T12:20:20.775Z,22.97
2019-02-14T12:22:49.166Z,19.50
2019-02-14T12:25:26.262Z,29.07
2019-02-14T12:27:54.663Z,21.47
2019-02-14T12:30:25.319Z,20.40
2019-02-14T12:32:54.161Z,21.33
2019-02-14T12:35:22.757Z,27.73
2019-02-14T12:37:52.126Z,22.97
2019-02-14T12:40:22.185Z,27.17
2019-02-14T12:42:53.515Z,22.73
2019-02-14T12:45:26.025Z,21.50
2019-02-14T12:47:55.859Z,17.07
2019-02-14T12:50:25.438Z,24.27
2019-02-14T12:52:56.315Z,22.43
2019-02-14T12:55:24.768Z,24.17
2019-02-14T12:57:53.155Z,20.90
2019-02-14T13:00:23.120Z,22.10
2019-02-14T13:02:52.062Z,17.27
2019-02-14T13:05:20.503Z,21.47
2019-02-14T13:07:48.864Z,19.27
2019-02-14T13:10:18.371Z,22.07
2019-02-14T13:12:47.884Z,24.97
2019-02-14T13:15:21.689Z,20.97
2019-02-14T13:17:50.937Z,17.83
2019-02-14T13:20:19.320Z,22.90
2019-02-14T13:22:47.760Z,20.83
2019-02-14T13:25:16.231Z,22.17
2019-02-14T13:27:44.729Z,18.73
2019-02-14T13:30:18.876Z,21.13
2019-02-14T13:32:47.274Z,20.17
2019-02-14T13:35:15.727Z,17.07
2019-02-14T13:37:47.174Z,20.40
2019-02-14T13:40:15.549Z,19.23
2019-02-14T13:42:44.388Z,16.13
2019-02-14T13:45:15.441Z,23.87
2019-02-14T13:47:44.404Z,17.07
2019-02-14T13:50:16.146Z,15.63
2019-02-14T13:52:49.579Z,15.83
2019-02-14T13:55:17.924Z,17.13
2019-02-14T13:57:46.460Z,14.03
2019-02-14T14:00:20.674Z,20.43
2019-02-14T14:02:52.435Z,15.00
2019-02-14T14:05:20.914Z,18.20
2019-02-14T14:07:49.292Z,17.57
2019-02-14T14:10:17.788Z,15.40
2019-02-14T14:12:46.176Z,17.90
2019-02-14T14:15:14.540Z,20.67
2019-02-14T14:17:42.934Z,16.10
2019-02-14T14:20:13.162Z,17.60
2019-02-14T14:22:42.162Z,15.33
2019-02-14T14:25:13.251Z,17.27
2019-02-14T14:27:45.722Z,18.20
2019-02-14T14:30:14.438Z,16.13
2019-02-14T14:32:42.872Z,17.87
2019-02-14T14:35:11.533Z,19.27
2019-02-14T14:37:40.021Z,17.40
2019-02-14T14:40:20.298Z,14.07
2019-02-14T14:42:52.338Z,16.33
2019-02-14T14:45:40.218Z,17.10
2019-02-14T14:48:18.997Z,22.53
2019-02-14T14:50:43.340Z,18.10
2019-02-14T14:53:11.744Z,17.17
2019-02-14T14:55:40.130Z,19.70
2019-02-14T14:58:11.511Z,16.80
2019-02-14T15:00:41.264Z,16.30
2019-02-14T15:03:09.715Z,14.67
2019-02-14T15:05:39.187Z,16.70
2019-02-14T15:08:07.656Z,19.13
2019-02-14T15:10:36.175Z,20.30
2019-02-14T15:13:05.051Z,14.73
2019-02-14T15:15:33.427Z,22.17
2019-02-14T15:18:02.976Z,20.00
2019-02-14T15:20:31.349Z,18.37
2019-02-14T15:23:01.314Z,19.17
2019-02-14T15:25:29.818Z,24.20
2019-02-14T15:27:58.190Z,18.10
2019-02-14T15:30:26.621Z,19.47
2019-02-14T15:32:55.023Z,21.90
2019-02-14T15:35:23.393Z,20.77
2019-02-14T15:37:52.912Z,19.87
2019-02-14T15:40:21.315Z,17.13
2019-02-14T15:42:49.757Z,18.00
2019-02-14T15:45:18.232Z,18.62
2019-02-14T15:47:49.542Z,19.90
2019-02-14T15:50:18.192Z,22.37
2019-02-14T15:52:46.587Z,21.17
2019-02-14T15:55:14.980Z,22.90
2019-02-14T15:57:44.777Z,23.07
2019-02-14T16:00:13.978Z,21.17
2019-02-14T16:02:43.543Z,22.03
2019-02-14T16:05:11.949Z,23.47
2019-02-14T16:07:41.467Z,21.30
2019-02-14T16:10:18.249Z,22.63
2019-02-14T16:12:41.794Z,26.50
2019-02-14T16:15:11.123Z,27.40
2019-02-14T16:17:39.506Z,21.20
2019-02-14T16:20:08.644Z,22.83
2019-02-14T16:22:37.042Z,23.67
2019-02-14T16:25:08.256Z,23.57
2019-02-14T16:27:36.719Z,22.60
2019-02-14T16:30:09.349Z,24.93
2019-02-14T16:32:37.993Z,28.63
2019-02-14T16:35:07.388Z,24.80
2019-02-14T16:37:35.797Z,28.83
2019-02-14T16:40:07.118Z,26.87
2019-02-14T16:42:38.037Z,24.50
2019-02-14T16:45:07.923Z,28.60
2019-02-14T16:47:36.301Z,25.00
2019-02-14T16:50:07.090Z,29.40
2019-02-14T16:52:35.483Z,30.50
2019-02-14T16:55:04.235Z,23.57
2019-02-14T16:57:32.603Z,26.70
2019-02-14T17:00:04.347Z,27.00
2019-02-14T17:02:32.767Z,28.57
2019-02-14T17:05:01.198Z,26.53
2019-02-14T17:07:29.583Z,26.33
2019-02-14T17:09:57.955Z,25.27
2019-02-14T17:12:26.439Z,28.03
2019-02-14T17:14:54.836Z,27.60
2019-02-14T17:17:27.831Z,26.00
2019-02-14T17:19:53.253Z,29.43
2019-02-14T17:22:21.623Z,31.80
2019-02-14T17:24:50.010Z,27.03
2019-02-14T17:27:18.407Z,33.33
2019-02-14T17:29:48.289Z,31.27
2019-02-14T17:32:18.159Z,33.30
2019-02-14T17:34:46.535Z,32.87
2019-02-14T17:37:14.924Z,33.37
2019-02-14T17:39:43.353Z,32.03
2019-02-14T17:42:11.715Z,37.30
2019-02-14T17:44:40.211Z,39.13
2019-02-14T17:47:08.648Z,36.13
2019-02-14T17:49:39.514Z,33.60
2019-02-14T17:52:07.987Z,35.60
2019-02-14T17:54:36.390Z,31.20
2019-02-14T17:57:04.779Z,37.37
2019-02-14T17:59:34.815Z,35.27
2019-02-14T18:02:03.403Z,37.30
2019-02-14T18:04:33.496Z,35.27
2019-02-14T18:07:02.054Z,34.17
2019-02-14T18:09:30.499Z,40.80
2019-02-14T18:11:58.874Z,38.20
2019-02-14T18:14:27.263Z,38.27
2019-02-14T18:16:56.316Z,39.63
2019-02-14T18:19:24.723Z,35.97
2019-02-14T18:21:53.096Z,40.00
2019-02-14T18:24:21.524Z,40.73
2019-02-14T18:26:49.924Z,39.90
2019-02-14T18:29:18.402Z,39.43
2019-02-14T18:31:46.792Z,36.53
2019-02-14T18:34:15.187Z,39.13
2019-02-14T18:36:43.589Z,44.17
2019-02-14T18:39:11.973Z,42.23
2019-02-14T18:41:40.384Z,40.30
2019-02-14T18:44:08.831Z,43.57
2019-02-14T18:46:37.217Z,41.37
2019-02-14T18:49:05.659Z,44.43
2019-02-14T18:51:34.039Z,43.87
2019-02-14T18:54:02.497Z,44.17
2019-02-14T18:56:31.116Z,39.70
2019-02-14T18:58:59.500Z,43.27
2019-02-14T19:01:27.935Z,45.37
2019-02-14T19:03:56.635Z,40.70
2019-02-14T19:06:25.012Z,45.43
2019-02-14T19:08:53.433Z,48.33
2019-02-14T19:11:21.868Z,52.70
2019-02-14T19:13:50.281Z,46.20
2019-02-14T19:16:18.659Z,54.77
2019-02-14T19:18:47.139Z,52.57
2019-02-14T19:21:15.524Z,52.93
2019-02-14T19:23:43.895Z,50.77
2019-02-14T19:26:12.311Z,55.97
2019-02-14T19:28:41.989Z,56.47
2019-02-14T19:31:13.033Z,53.43
2019-02-14T19:33:41.776Z,55.77
2019-02-14T19:36:10.172Z,55.23
2019-02-14T19:38:40.711Z,58.60
2019-02-14T19:41:10.355Z,59.10
2019-02-14T19:43:38.746Z,61.17
2019-02-14T19:46:07.146Z,58.43
2019-02-14T19:48:38.714Z,57.63
2019-02-14T19:51:07.604Z,55.27
2019-02-14T19:53:35.991Z,48.00
2019-02-14T19:56:09.143Z,53.03
2019-02-14T19:58:38.025Z,50.17
2019-02-14T20:01:06.462Z,49.50
2019-02-14T20:03:34.843Z,50.60
2019-02-14T20:06:03.223Z,52.10
2019-02-14T20:08:32.070Z,55.23
2019-02-14T20:11:00.451Z,55.83
2019-02-14T20:13:29.470Z,51.23
2019-02-14T20:15:57.888Z,54.93
2019-02-14T20:18:26.268Z,55.73
2019-02-14T20:20:54.648Z,52.27
2019-02-14T20:23:23.062Z,58.87
2019-02-14T20:25:51.444Z,56.97
2019-02-14T20:28:19.820Z,49.77
2019-02-14T20:30:50.463Z,53.87
2019-02-14T20:33:18.846Z,57.10
2019-02-14T20:35:47.294Z,46.57
2019-02-14T20:38:20.877Z,48.17
2019-02-14T20:40:52.762Z,49.57
2019-02-14T20:43:21.651Z,49.37
2019-02-14T20:45:51.097Z,49.53
2019-02-14T20:48:23.566Z,46.13
2019-02-14T20:50:51.940Z,49.87
2019-02-14T20:53:20.344Z,49.10
2019-02-14T20:55:48.835Z,46.93
2019-02-14T20:58:17.314Z,48.13
2019-02-14T21:00:47.311Z,49.57
2019-02-14T21:03:15.712Z,48.53
2019-02-14T21:05:44.078Z,46.27
2019-02-14T21:08:12.491Z,49.83
2019-02-14T21:10:40.917Z,48.30
2019-02-14T21:13:10.342Z,52.03
2019-02-14T21:15:42.032Z,50.50
2019-02-14T21:18:10.402Z,50.33
2019-02-14T21:20:38.789Z,51.03
2019-02-14T21:23:07.214Z,48.53
2019-02-14T21:25:37.171Z,48.73
2019-02-14T21:28:06.131Z,52.77
2019-02-14T21:30:35.837Z,49.20
2019-02-14T21:33:04.796Z,48.57
2019-02-14T21:35:33.387Z,45.93
2019-02-14T21:38:01.889Z,52.50
2019-02-14T21:40:30.442Z,56.67
2019-02-14T21:42:58.801Z,47.00
2019-02-14T21:45:27.190Z,49.10
2019-02-14T21:47:55.710Z,47.13
2019-02-14T21:50:24.101Z,45.30
2019-02-14T21:52:52.483Z,50.03
2019-02-14T21:55:20.947Z,47.73
2019-02-14T21:57:49.394Z,41.17
2019-02-14T22:00:24.021Z,42.90
2019-02-14T22:02:54.053Z,43.60
2019-02-14T22:05:26.130Z,44.17
2019-02-14T22:07:54.648Z,47.57
2019-02-14T22:10:23.114Z,44.07
2019-02-14T22:12:51.580Z,48.83
2019-02-14T22:15:28.608Z,45.73
2019-02-14T22:17:57.320Z,46.33
2019-02-14T22:20:25.851Z,44.87
2019-02-14T22:22:55.164Z,46.77
2019-02-14T22:25:23.664Z,47.03
2019-02-14T22:27:52.111Z,45.80
2019-02-14T22:30:20.522Z,43.50
2019-02-14T22:32:48.933Z,46.43
2019-02-14T22:35:19.522Z,45.13
2019-02-14T22:37:48.935Z,41.03
2019-02-14T22:40:17.456Z,43.43
2019-02-14T22:42:47.643Z,41.90
2019-02-14T22:45:16.294Z,34.87
2019-02-14T22:47:44.923Z,33.13
2019-02-14T22:50:13.713Z,37.23
2019-02-14T22:52:42.139Z,37.43
2019-02-14T22:55:14.023Z,40.03
2019-02-14T22:57:42.426Z,41.70
2019-02-14T23:00:17.981Z,39.63
2019-02-14T23:02:46.387Z,43.80
2019-02-14T23:05:14.786Z,43.87
2019-02-14T23:07:43.205Z,44.60
2019-02-14T23:10:12.330Z,41.60
2019-02-14T23:12:42.349Z,46.50
2019-02-14T23:15:10.762Z,43.27
2019-02-14T23:17:39.211Z,45.47
2019-02-14T23:20:09.221Z,43.37
2019-02-14T23:22:37.626Z,55.30
2019-02-14T23:25:06.189Z,51.00
2019-02-14T23:27:34.977Z,53.73
2019-02-14T23:30:04.572Z,56.27
2019-02-14T23:32:32.974Z,52.10
2019-02-14T23:35:01.583Z,53.83
2019-02-14T23:37:29.967Z,48.73
2019-02-14T23:39:58.819Z,55.47
2019-02-14T23:42:27.251Z,52.30
2019-02-14T23:44:55.637Z,54.40
2019-02-14T23:47:24.034Z,55.40
2019-02-14T23:49:52.781Z,59.30
2019-02-14T23:52:21.236Z,60.10
2019-02-14T23:54:50.233Z,61.43
2019-02-14T23:57:19.119Z,64.53
2019-02-14T23:59:47.513Z,71.60
